Time;durP1;ratioP1;P1;durP2;ratioP2;P2;SDS_P1;SDS_P2;PMS_P1;PMS_P2;Temp;Humidity;BMP_temperature;BMP_pressure;BME280_temperature;BME280_humidity;BME280_pressure;Samples;Min_cycle;Max_cycle;Signal;HPM_P1;HPM_P2
2023/04/12 00:01:55;;;;;;;26.60;17.83;;;;;;;;;;5138467;27;20084;-71
2023/04/12 00:04:41;;;;;;;22.13;16.55;;;;;;;;;;5138153;27;20015;-71
2023/04/12 00:07:26;;;;;;;26.02;18.02;;;;;;;;;;5136372;27;20118;-71
2023/04/12 00:10:12;;;;;;;22.67;16.05;;;;;;;;;;5136965;27;20152;-71
2023/04/12 00:12:57;;;;;;;22.10;16.13;;;;;;;;;;5137228;27;20011;-71
2023/04/12 00:15:43;;;;;;;24.98;17.15;;;;;;;;;;5136347;27;20107;-71
2023/04/12 00:18:29;;;;;;;23.83;16.75;;;;;;;;;;5137368;27;20094;-72
2023/04/12 00:21:18;;;;;;;20.65;15.80;;;;;;;;;;5137169;27;20031;-72
2023/04/12 00:24:03;;;;;;;24.90;17.40;;;;;;;;;;5122791;27;20037;-71
2023/04/12 00:26:49;;;;;;;24.10;17.30;;;;;;;;;;5136114;27;20107;-71
2023/04/12 00:29:35;;;;;;;26.00;17.30;;;;;;;;;;5136877;27;20342;-70
2023/04/12 00:32:20;;;;;;;24.77;17.10;;;;;;;;;;5137243;27;20023;-72
2023/04/12 00:35:06;;;;;;;24.67;17.60;;;;;;;;;;5136578;27;20038;-71
2023/04/12 00:37:52;;;;;;;27.83;18.02;;;;;;;;;;5137240;27;20027;-72
2023/04/12 00:40:41;;;;;;;26.63;18.40;;;;;;;;;;5136952;27;20015;-71
2023/04/12 00:43:27;;;;;;;26.05;18.08;;;;;;;;;;5136160;27;20027;-72
2023/04/12 00:46:13;;;;;;;28.65;19.02;;;;;;;;;;5136126;27;20020;-71
2023/04/12 00:48:59;;;;;;;28.08;18.95;;;;;;;;;;5137173;27;20463;-71
2023/04/12 00:51:45;;;;;;;29.05;17.95;;;;;;;;;;5137182;27;20039;-71
2023/04/12 00:54:32;;;;;;;25.25;18.08;;;;;;;;;;5122292;27;20088;-71
2023/04/12 00:57:17;;;;;;;24.17;16.25;;;;;;;;;;5136551;27;20150;-70
2023/04/12 01:00:05;;;;;;;24.00;17.40;;;;;;;;;;5136425;27;20114;-71
2023/04/12 01:02:50;;;;;;;23.42;15.82;;;;;;;;;;5136429;27;20023;-72
2023/04/12 01:05:42;;;;;;;24.70;16.05;;;;;;;;;;5122747;27;20023;-70
2023/04/12 01:08:39;;;;;;;21.70;14.95;;;;;;;;;;5136070;27;20051;-71
2023/04/12 01:11:30;;;;;;;21.42;15.45;;;;;;;;;;5135357;27;20030;-71
2023/04/12 01:14:42;;;;;;;19.90;14.70;;;;;;;;;;5135790;27;20471;-71
2023/04/12 01:17:29;;;;;;;20.60;15.45;;;;;;;;;;5135990;27;20451;-71
2023/04/12 01:20:18;;;;;;;22.83;16.08;;;;;;;;;;5120852;27;20019;-71
2023/04/12 01:23:33;;;;;;;24.63;16.05;;;;;;;;;;5135793;27;20038;-71
2023/04/12 01:26:20;;;;;;;20.33;14.70;;;;;;;;;;5129064;27;20091;-71
2023/04/12 01:29:14;;;;;;;20.35;14.50;;;;;;;;;;5135031;27;20031;-71
2023/04/12 01:32:01;;;;;;;18.90;13.63;;;;;;;;;;5136261;27;20015;-72
2023/04/12 01:34:46;;;;;;;18.30;12.95;;;;;;;;;;5135635;27;20041;-71
2023/04/12 01:37:32;;;;;;;17.90;12.45;;;;;;;;;;5135538;27;20450;-71
2023/04/12 01:40:18;;;;;;;16.67;11.68;;;;;;;;;;5135789;27;20020;-72
2023/04/12 01:43:08;;;;;;;16.25;11.68;;;;;;;;;;5135765;27;20015;-70
2023/04/12 01:45:54;;;;;;;19.05;11.52;;;;;;;;;;5135838;27;20019;-71
2023/04/12 01:48:40;;;;;;;14.63;10.52;;;;;;;;;;5135190;27;20015;-71
2023/04/12 01:51:44;;;;;;;17.35;11.98;;;;;;;;;;5135916;27;20336;-71
2023/04/12 01:54:32;;;;;;;14.32;11.10;;;;;;;;;;5134562;27;20015;-71
2023/04/12 01:57:17;;;;;;;13.52;10.40;;;;;;;;;;5135050;27;20443;-71
2023/04/12 02:00:06;;;;;;;16.80;10.85;;;;;;;;;;5121638;27;20011;-72
2023/04/12 02:02:52;;;;;;;15.88;11.50;;;;;;;;;;5135140;27;20023;-70
2023/04/12 02:05:38;;;;;;;13.43;10.10;;;;;;;;;;5120007;27;20097;-71
2023/04/12 02:08:24;;;;;;;16.48;11.43;;;;;;;;;;5134876;27;20047;-70
2023/04/12 02:11:10;;;;;;;16.20;11.07;;;;;;;;;;5135092;27;20083;-71
2023/04/12 02:13:56;;;;;;;15.75;10.30;;;;;;;;;;5134775;27;20077;-70
2023/04/12 02:16:43;;;;;;;15.75;11.32;;;;;;;;;;5135693;27;20465;-71
2023/04/12 02:19:29;;;;;;;15.38;10.88;;;;;;;;;;5134566;27;20030;-71
2023/04/12 02:22:14;;;;;;;16.52;11.80;;;;;;;;;;5135310;27;20058;-70
2023/04/12 02:25:01;;;;;;;18.17;12.27;;;;;;;;;;5119200;27;20019;-70
2023/04/12 02:27:47;;;;;;;15.35;11.60;;;;;;;;;;5134979;27;20125;-70
2023/04/12 02:30:33;;;;;;;19.60;12.85;;;;;;;;;;5134660;27;20051;-71
2023/04/12 02:33:24;;;;;;;17.20;12.05;;;;;;;;;;5134359;27;20038;-71
2023/04/12 02:36:10;;;;;;;17.70;11.85;;;;;;;;;;5120392;28;20019;-71
2023/04/12 02:38:55;;;;;;;16.42;11.93;;;;;;;;;;5134803;28;20020;-71
2023/04/12 02:41:41;;;;;;;18.42;12.07;;;;;;;;;;5135279;28;20023;-71
2023/04/12 02:44:30;;;;;;;16.30;11.60;;;;;;;;;;5134368;28;20023;-71
2023/04/12 02:47:15;;;;;;;15.70;11.60;;;;;;;;;;5134798;28;20015;-70
2023/04/12 02:50:01;;;;;;;14.77;10.60;;;;;;;;;;5134402;28;20076;-70
2023/04/12 02:52:47;;;;;;;15.65;11.63;;;;;;;;;;5134029;28;20023;-71
2023/04/12 02:55:32;;;;;;;16.50;11.80;;;;;;;;;;5146344;28;20034;-72
2023/04/12 02:58:18;;;;;;;19.85;13.23;;;;;;;;;;5107758;28;20019;-72
2023/04/12 03:01:06;;;;;;;17.35;12.23;;;;;;;;;;5138446;28;20079;-71
2023/04/12 03:03:51;;;;;;;16.33;12.15;;;;;;;;;;5120090;28;20045;-71
2023/04/12 03:06:51;;;;;;;19.55;13.77;;;;;;;;;;5136738;27;20035;-73
2023/04/12 03:09:37;;;;;;;19.98;13.77;;;;;;;;;;5122656;27;20129;-70
2023/04/12 03:12:23;;;;;;;21.17;13.15;;;;;;;;;;5124487;27;20023;-71
2023/04/12 03:15:08;;;;;;;19.58;13.75;;;;;;;;;;5137913;27;20111;-72
2023/04/12 03:17:54;;;;;;;19.38;13.60;;;;;;;;;;5138771;27;20016;-71
2023/04/12 03:20:42;;;;;;;21.17;13.90;;;;;;;;;;5137593;27;20015;-71
2023/04/12 03:23:28;;;;;;;21.60;13.93;;;;;;;;;;5139097;27;20019;-71
2023/04/12 03:26:13;;;;;;;20.02;13.73;;;;;;;;;;5137928;27;20027;-70
2023/04/12 03:29:00;;;;;;;18.63;12.90;;;;;;;;;;5124118;27;20023;-70
2023/04/12 03:31:45;;;;;;;19.92;13.88;;;;;;;;;;5137124;27;20211;-71
2023/04/12 03:34:31;;;;;;;21.33;14.82;;;;;;;;;;5138171;27;20019;-69
2023/04/12 03:37:18;;;;;;;20.15;14.30;;;;;;;;;;5138115;27;20015;-71
2023/04/12 03:40:06;;;;;;;20.40;14.45;;;;;;;;;;5139382;27;20047;-71
2023/04/12 03:42:51;;;;;;;20.00;14.45;;;;;;;;;;5137602;27;20332;-71
2023/04/12 03:45:37;;;;;;;22.75;15.80;;;;;;;;;;5137602;27;20034;-71
2023/04/12 03:48:23;;;;;;;22.83;15.50;;;;;;;;;;5137645;27;20359;-71
2023/04/12 03:51:10;;;;;;;23.67;15.15;;;;;;;;;;5138171;27;20041;-71
2023/04/12 03:53:56;;;;;;;24.42;15.15;;;;;;;;;;5137914;27;20034;-71
2023/04/12 03:56:42;;;;;;;21.73;14.88;;;;;;;;;;5122417;27;20106;-71
2023/04/12 03:59:27;;;;;;;20.83;14.57;;;;;;;;;;5137747;27;20051;-70
2023/04/12 04:02:13;;;;;;;21.88;15.23;;;;;;;;;;5137440;27;20343;-72
2023/04/12 04:05:01;;;;;;;19.48;13.55;;;;;;;;;;5123785;27;20363;-70
2023/04/12 04:07:46;;;;;;;21.85;15.07;;;;;;;;;;5137557;27;20043;-70
2023/04/12 04:10:32;;;;;;;22.23;14.43;;;;;;;;;;5137136;27;20015;-70
2023/04/12 04:13:18;;;;;;;19.20;13.98;;;;;;;;;;5136714;27;20015;-70
2023/04/12 04:16:09;;;;;;;23.02;15.50;;;;;;;;;;5136816;27;20016;-70
2023/04/12 04:18:54;;;;;;;24.10;15.43;;;;;;;;;;5136586;27;20019;-71
2023/04/12 04:21:41;;;;;;;21.52;14.57;;;;;;;;;;5137372;27;20025;-71
2023/04/12 04:24:27;;;;;;;23.48;16.27;;;;;;;;;;5136819;27;20016;-70
2023/04/12 04:27:14;;;;;;;25.70;16.20;;;;;;;;;;5137590;27;20027;-71
2023/04/12 04:30:01;;;;;;;24.63;16.50;;;;;;;;;;5122849;27;20046;-72
2023/04/12 04:32:47;;;;;;;25.33;15.38;;;;;;;;;;5136867;27;20115;-71
2023/04/12 04:35:32;;;;;;;26.67;16.48;;;;;;;;;;5122112;27;20023;-71
2023/04/12 04:38:19;;;;;;;23.55;15.32;;;;;;;;;;5136084;27;20088;-71
2023/04/12 04:41:04;;;;;;;21.77;14.77;;;;;;;;;;5121430;27;20370;-71
2023/04/12 04:43:50;;;;;;;20.52;14.35;;;;;;;;;;5136295;27;20016;-70
2023/04/12 04:46:36;;;;;;;21.73;13.82;;;;;;;;;;5136953;27;20397;-71
2023/04/12 04:49:22;;;;;;;21.25;14.25;;;;;;;;;;5136820;27;20037;-69
2023/04/12 04:52:08;;;;;;;23.20;14.50;;;;;;;;;;5136441;27;20019;-71
2023/04/12 04:54:56;;;;;;;23.05;14.98;;;;;;;;;;5136749;27;20038;-72
2023/04/12 04:57:42;;;;;;;22.98;15.30;;;;;;;;;;5121043;27;20110;-71
2023/04/12 05:00:27;;;;;;;23.02;15.13;;;;;;;;;;5135973;27;20026;-71
2023/04/12 05:03:13;;;;;;;21.58;15.73;;;;;;;;;;5136442;27;20451;-71
2023/04/12 05:05:59;;;;;;;24.70;16.33;;;;;;;;;;5122204;27;20042;-71
2023/04/12 05:08:45;;;;;;;27.00;17.33;;;;;;;;;;5120688;27;20382;-71
2023/04/12 05:11:31;;;;;;;23.83;17.08;;;;;;;;;;5135928;27;20015;-72
2023/04/12 05:14:16;;;;;;;29.05;18.38;;;;;;;;;;5136315;27;20366;-71
2023/04/12 05:17:02;;;;;;;28.15;18.55;;;;;;;;;;5136016;27;20030;-70
2023/04/12 05:19:47;;;;;;;26.92;17.52;;;;;;;;;;5135292;27;20011;-72
2023/04/12 05:22:33;;;;;;;27.30;18.35;;;;;;;;;;5137578;27;20031;-71
2023/04/12 05:25:19;;;;;;;30.23;17.67;;;;;;;;;;5136537;27;20427;-71
2023/04/12 05:28:10;;;;;;;27.08;17.55;;;;;;;;;;5135704;27;20039;-71
2023/04/12 05:30:55;;;;;;;27.30;17.20;;;;;;;;;;5122494;27;20030;-71
2023/04/12 05:33:41;;;;;;;26.35;16.65;;;;;;;;;;5135964;27;20019;-71
2023/04/12 05:36:27;;;;;;;21.02;14.63;;;;;;;;;;5121302;27;20030;-72
2023/04/12 05:39:12;;;;;;;22.55;15.40;;;;;;;;;;5135327;27;20018;-72
2023/04/12 05:41:58;;;;;;;23.70;15.55;;;;;;;;;;5122158;27;20106;-71
2023/04/12 05:44:44;;;;;;;22.95;14.25;;;;;;;;;;5121886;27;20024;-71
2023/04/12 05:47:29;;;;;;;21.08;14.98;;;;;;;;;;5135542;27;20023;-71
2023/04/12 05:50:15;;;;;;;24.60;14.93;;;;;;;;;;5121412;27;20041;-69
2023/04/12 05:53:01;;;;;;;21.80;15.23;;;;;;;;;;5120951;27;20050;-70
2023/04/12 05:55:47;;;;;;;23.92;16.33;;;;;;;;;;5135591;27;20023;-72
2023/04/12 05:58:32;;;;;;;27.83;16.75;;;;;;;;;;5134630;27;20023;-71
2023/04/12 06:01:18;;;;;;;27.95;18.50;;;;;;;;;;5135369;27;20023;-71
2023/04/12 06:04:04;;;;;;;26.50;18.25;;;;;;;;;;5135078;27;20113;-71
2023/04/12 06:06:50;;;;;;;26.33;17.67;;;;;;;;;;5135689;27;20355;-71
2023/04/12 06:09:35;;;;;;;25.75;17.67;;;;;;;;;;5134512;27;20037;-71
2023/04/12 06:12:21;;;;;;;28.33;18.23;;;;;;;;;;5135875;27;20034;-72
2023/04/12 06:15:06;;;;;;;33.55;19.40;;;;;;;;;;5134416;27;20015;-71
2023/04/12 06:17:52;;;;;;;27.77;17.98;;;;;;;;;;5134956;27;20023;-71
2023/04/12 06:20:38;;;;;;;28.35;16.77;;;;;;;;;;5134924;27;20030;-71
2023/04/12 06:23:24;;;;;;;24.45;16.90;;;;;;;;;;5135375;27;20027;-70
2023/04/12 06:26:10;;;;;;;26.55;17.05;;;;;;;;;;5134749;27;20430;-71
2023/04/12 06:28:55;;;;;;;27.98;18.55;;;;;;;;;;5134939;27;20053;-71
2023/04/12 06:31:41;;;;;;;29.98;18.85;;;;;;;;;;5134683;27;20055;-72
2023/04/12 06:34:27;;;;;;;30.38;20.60;;;;;;;;;;5133877;27;20026;-72
2023/04/12 06:37:12;;;;;;;32.92;21.38;;;;;;;;;;5134422;28;20171;-72
2023/04/12 06:39:58;;;;;;;29.75;20.17;;;;;;;;;;5134158;27;20442;-71
2023/04/12 06:42:43;;;;;;;27.73;18.85;;;;;;;;;;5134309;28;20106;-72
2023/04/12 06:45:29;;;;;;;28.27;19.10;;;;;;;;;;5135263;28;20034;-71
2023/04/12 06:48:14;;;;;;;29.63;20.40;;;;;;;;;;5119865;28;20029;-70
2023/04/12 06:51:00;;;;;;;30.48;21.55;;;;;;;;;;5134765;28;20102;-71
2023/04/12 06:53:46;;;;;;;31.92;19.25;;;;;;;;;;5134545;28;20034;-71
2023/04/12 06:56:31;;;;;;;30.38;18.85;;;;;;;;;;5134068;28;20426;-71
2023/04/12 06:59:17;;;;;;;30.38;18.38;;;;;;;;;;5134768;28;20030;-71
2023/04/12 07:02:02;;;;;;;27.00;16.63;;;;;;;;;;5133897;28;20034;-72
2023/04/12 07:04:52;;;;;;;31.70;19.42;;;;;;;;;;5119140;28;20023;-72
2023/04/12 07:07:38;;;;;;;32.33;19.70;;;;;;;;;;5119707;28;20046;-71
2023/04/12 07:10:24;;;;;;;28.15;18.40;;;;;;;;;;5134404;28;20030;-71
2023/04/12 07:13:09;;;;;;;27.75;17.73;;;;;;;;;;5134312;28;20023;-72
2023/04/12 07:15:55;;;;;;;24.48;16.70;;;;;;;;;;5134847;28;20019;-71
2023/04/12 07:18:41;;;;;;;26.15;17.00;;;;;;;;;;5119153;28;20019;-70
2023/04/12 07:21:27;;;;;;;24.05;16.17;;;;;;;;;;5134334;28;20083;-71
2023/04/12 07:24:12;;;;;;;27.42;15.63;;;;;;;;;;5134263;28;20336;-71
2023/04/12 07:26:58;;;;;;;23.83;15.77;;;;;;;;;;5120065;28;20119;-72
2023/04/12 07:29:43;;;;;;;22.50;15.55;;;;;;;;;;5133382;28;20015;-71
2023/04/12 07:32:29;;;;;;;22.40;14.70;;;;;;;;;;5133225;28;20027;-72
2023/04/12 07:35:15;;;;;;;24.25;15.68;;;;;;;;;;5118702;28;20079;-72
2023/04/12 07:38:00;;;;;;;23.35;16.05;;;;;;;;;;5134105;28;20072;-72
2023/04/12 07:40:46;;;;;;;22.05;15.45;;;;;;;;;;5119037;28;20020;-71
2023/04/12 07:43:32;;;;;;;21.75;15.40;;;;;;;;;;5134010;28;20084;-71
2023/04/12 07:46:17;;;;;;;20.45;13.50;;;;;;;;;;5134916;28;20031;-71
2023/04/12 07:49:03;;;;;;;18.70;13.73;;;;;;;;;;5120532;28;20015;-71
2023/04/12 07:51:48;;;;;;;22.38;15.48;;;;;;;;;;5122873;27;20023;-72
2023/04/12 07:54:34;;;;;;;21.42;14.82;;;;;;;;;;5137493;27;20019;-71
2023/04/12 07:57:20;;;;;;;20.65;14.43;;;;;;;;;;5138261;27;20377;-70
2023/04/12 08:00:07;;;;;;;20.38;13.80;;;;;;;;;;5139359;27;20084;-70
2023/04/12 08:02:53;;;;;;;18.17;12.85;;;;;;;;;;5137738;27;20098;-71
2023/04/12 08:05:39;;;;;;;21.83;13.05;;;;;;;;;;5122066;27;20439;-71
2023/04/12 08:08:25;;;;;;;20.20;12.57;;;;;;;;;;5137174;27;20055;-71
2023/04/12 08:11:11;;;;;;;19.50;12.45;;;;;;;;;;5137293;27;20110;-71
2023/04/12 08:13:57;;;;;;;18.25;11.63;;;;;;;;;;5137612;27;20027;-71
2023/04/12 08:16:42;;;;;;;17.35;11.52;;;;;;;;;;5137220;27;20049;-71
2023/04/12 08:19:28;;;;;;;16.92;11.88;;;;;;;;;;5137834;27;20019;-70
2023/04/12 08:22:14;;;;;;;17.27;12.20;;;;;;;;;;5137662;27;20015;-70
2023/04/12 08:24:59;;;;;;;17.80;12.05;;;;;;;;;;5137575;27;20026;-71
2023/04/12 08:27:45;;;;;;;15.52;10.77;;;;;;;;;;5137872;27;20034;-72
2023/04/12 08:30:31;;;;;;;14.07;10.00;;;;;;;;;;5137076;27;20051;-71
2023/04/12 08:33:16;;;;;;;17.92;11.30;;;;;;;;;;5137080;27;20026;-71
2023/04/12 08:36:02;;;;;;;14.10;10.57;;;;;;;;;;5122683;27;20023;-72
2023/04/12 08:38:51;;;;;;;16.85;10.55;;;;;;;;;;5137308;27;20408;-71
2023/04/12 08:41:37;;;;;;;14.82;10.23;;;;;;;;;;5137272;27;20426;-71
2023/04/12 08:44:32;;;;;;;14.00;10.40;;;;;;;;;;5122715;27;20017;-71
2023/04/12 08:47:17;;;;;;;19.02;10.90;;;;;;;;;;5137419;27;20034;-71
2023/04/12 08:50:07;;;;;;;16.63;10.10;;;;;;;;;;5136633;27;20472;-71
2023/04/12 08:52:52;;;;;;;15.90;9.95;;;;;;;;;;5137368;27;20023;-71
2023/04/12 08:55:38;;;;;;;16.15;10.13;;;;;;;;;;5136698;27;20114;-71
2023/04/12 08:58:24;;;;;;;13.10;9.48;;;;;;;;;;5135824;27;20427;-71
2023/04/12 09:01:12;;;;;;;17.33;10.93;;;;;;;;;;5137457;27;20015;-72
2023/04/12 09:03:58;;;;;;;12.15;9.10;;;;;;;;;;5136010;27;20019;-71
2023/04/12 09:06:44;;;;;;;12.00;9.00;;;;;;;;;;5136175;27;20019;-72
2023/04/12 09:09:42;;;;;;;13.00;9.38;;;;;;;;;;5136263;27;20344;-71
2023/04/12 09:12:28;;;;;;;14.00;9.70;;;;;;;;;;5135934;27;20031;-71
2023/04/12 09:15:14;;;;;;;14.52;9.90;;;;;;;;;;5135955;27;20030;-71
2023/04/12 09:18:04;;;;;;;12.93;9.30;;;;;;;;;;5136277;27;20454;-71
2023/04/12 09:21:04;;;;;;;13.93;9.73;;;;;;;;;;5123531;27;20047;-71
2023/04/12 09:24:01;;;;;;;15.35;9.82;;;;;;;;;;5138454;27;20098;-70
2023/04/12 09:26:46;;;;;;;16.02;11.55;;;;;;;;;;5139073;27;20034;-71
2023/04/12 09:29:32;;;;;;;14.25;10.02;;;;;;;;;;5135760;27;20034;-70
2023/04/12 09:32:27;;;;;;;18.10;10.38;;;;;;;;;;5136471;27;20027;-72
2023/04/12 09:35:13;;;;;;;15.60;10.98;;;;;;;;;;5123045;27;20042;-71
2023/04/12 09:38:05;;;;;;;19.88;12.13;;;;;;;;;;5136072;27;20482;-71
2023/04/12 09:40:51;;;;;;;18.65;11.27;;;;;;;;;;5135398;27;20023;-72
2023/04/12 09:43:37;;;;;;;14.07;10.70;;;;;;;;;;5136345;27;20023;-71
2023/04/12 09:46:23;;;;;;;16.92;11.27;;;;;;;;;;5136246;27;20015;-71
2023/04/12 09:49:08;;;;;;;15.13;11.20;;;;;;;;;;5136439;27;20102;-71
2023/04/12 09:51:54;;;;;;;14.80;10.90;;;;;;;;;;5134954;27;20019;-72
2023/04/12 09:54:43;;;;;;;16.75;11.65;;;;;;;;;;5135448;27;20072;-71
2023/04/12 09:57:29;;;;;;;19.60;11.20;;;;;;;;;;5120099;27;20102;-71
2023/04/12 10:00:18;;;;;;;15.20;10.35;;;;;;;;;;5121772;27;20083;-71
2023/04/12 10:03:05;;;;;;;15.43;10.40;;;;;;;;;;5135275;27;20091;-71
2023/04/12 10:05:51;;;;;;;13.90;10.50;;;;;;;;;;5134905;27;20038;-72
2023/04/12 10:08:37;;;;;;;14.27;10.93;;;;;;;;;;5119110;27;20043;-71
2023/04/12 10:11:24;;;;;;;13.50;9.23;;;;;;;;;;5121705;27;20438;-70
2023/04/12 10:14:10;;;;;;;15.40;9.88;;;;;;;;;;5134654;27;20023;-71
2023/04/12 10:16:59;;;;;;;18.63;11.32;;;;;;;;;;5134753;27;20070;-71
2023/04/12 10:19:46;;;;;;;18.83;13.45;;;;;;;;;;5137454;27;20023;-71
2023/04/12 10:22:32;;;;;;;13.13;10.02;;;;;;;;;;5134813;27;20019;-72
2023/04/12 10:25:21;;;;;;;14.40;10.57;;;;;;;;;;5135309;27;20453;-71
2023/04/12 10:28:20;;;;;;;17.33;10.75;;;;;;;;;;5135297;27;20019;-71
2023/04/12 10:31:24;;;;;;;14.73;10.48;;;;;;;;;;5135137;27;20031;-71
2023/04/12 10:34:10;;;;;;;18.42;13.10;;;;;;;;;;5135369;27;20076;-71
2023/04/12 10:36:57;;;;;;;23.92;16.55;;;;;;;;;;5134259;27;20027;-72
2023/04/12 10:39:44;;;;;;;18.40;12.48;;;;;;;;;;5119809;28;20021;-70
2023/04/12 10:42:29;;;;;;;18.35;12.75;;;;;;;;;;5135935;28;20042;-71
2023/04/12 10:45:30;;;;;;;17.85;11.38;;;;;;;;;;5134288;28;20015;-71
2023/04/12 10:48:27;;;;;;;15.63;10.48;;;;;;;;;;5134786;28;20023;-71
2023/04/12 10:51:22;;;;;;;15.63;10.25;;;;;;;;;;5135038;28;20044;-71
2023/04/12 10:54:07;;;;;;;15.32;11.38;;;;;;;;;;5136526;28;20427;-71
2023/04/12 10:56:53;;;;;;;18.05;11.73;;;;;;;;;;5134599;28;20016;-71
2023/04/12 10:59:53;;;;;;;15.57;11.07;;;;;;;;;;5134348;28;20038;-71
2023/04/12 11:02:58;;;;;;;16.10;10.23;;;;;;;;;;5120603;28;20016;-72
2023/04/12 11:06:03;;;;;;;18.55;11.43;;;;;;;;;;5134671;28;20447;-71
2023/04/12 11:08:48;;;;;;;16.10;10.82;;;;;;;;;;5134260;28;20055;-71
2023/04/12 11:11:34;;;;;;;15.07;10.65;;;;;;;;;;5138379;28;20085;-71
2023/04/12 11:14:24;;;;;;;27.05;15.07;;;;;;;;;;5137830;28;20340;-71
2023/04/12 11:17:13;;;;;;;17.90;12.25;;;;;;;;;;5138504;28;20024;-72
2023/04/12 11:20:00;;;;;;;15.13;10.45;;;;;;;;;;5136151;28;20112;-72
2023/04/12 11:22:46;;;;;;;18.27;11.70;;;;;;;;;;5134494;28;20030;-70
2023/04/12 11:25:31;;;;;;;19.15;12.43;;;;;;;;;;5120753;27;20426;-71
2023/04/12 11:28:18;;;;;;;18.55;12.55;;;;;;;;;;5138935;27;20027;-72
2023/04/12 11:31:05;;;;;;;21.17;13.50;;;;;;;;;;5138677;27;20023;-71
2023/04/12 11:33:50;;;;;;;27.13;15.88;;;;;;;;;;5137961;27;20102;-72
2023/04/12 11:36:37;;;;;;;27.95;16.63;;;;;;;;;;5123352;27;20030;-71
2023/04/12 11:39:25;;;;;;;27.23;16.88;;;;;;;;;;5138258;27;20019;-71
2023/04/12 11:42:14;;;;;;;25.33;16.13;;;;;;;;;;5137968;27;20041;-71
2023/04/12 11:45:00;;;;;;;29.30;16.80;;;;;;;;;;5123542;27;20393;-72
2023/04/12 11:47:46;;;;;;;28.95;17.60;;;;;;;;;;5137914;27;20027;-72
2023/04/12 11:50:32;;;;;;;23.23;15.27;;;;;;;;;;5122940;27;20068;-71
2023/04/12 11:53:18;;;;;;;24.77;14.88;;;;;;;;;;5137051;27;20019;-72
2023/04/12 11:56:04;;;;;;;27.13;15.75;;;;;;;;;;5137832;27;20092;-71
2023/04/12 11:58:50;;;;;;;25.38;15.48;;;;;;;;;;5137434;27;20015;-71
2023/04/12 12:01:36;;;;;;;23.02;14.50;;;;;;;;;;5137554;27;20481;-72
2023/04/12 12:04:22;;;;;;;26.20;15.90;;;;;;;;;;5122881;27;20031;-72
2023/04/12 12:07:08;;;;;;;21.77;14.70;;;;;;;;;;5136848;27;20039;-72
2023/04/12 12:09:54;;;;;;;23.35;14.07;;;;;;;;;;5137808;27;20026;-72
2023/04/12 12:12:42;;;;;;;19.85;13.73;;;;;;;;;;5137310;27;20443;-72
2023/04/12 12:15:30;;;;;;;21.85;13.80;;;;;;;;;;5123528;27;20023;-71
2023/04/12 12:18:16;;;;;;;22.00;14.45;;;;;;;;;;5137308;27;20347;-71
2023/04/12 12:21:02;;;;;;;20.50;13.43;;;;;;;;;;5137940;27;20034;-71
2023/04/12 12:23:48;;;;;;;19.15;13.60;;;;;;;;;;5136335;27;20023;-71
2023/04/12 12:26:34;;;;;;;22.73;14.77;;;;;;;;;;5136727;27;20023;-71
2023/04/12 12:29:22;;;;;;;21.42;14.90;;;;;;;;;;5136766;27;20091;-72
2023/04/12 12:32:11;;;;;;;21.40;14.75;;;;;;;;;;5136716;27;20023;-72
2023/04/12 12:34:57;;;;;;;20.10;15.52;;;;;;;;;;5137599;27;20023;-71
2023/04/12 12:37:51;;;;;;;21.73;15.80;;;;;;;;;;5135383;27;20106;-71
2023/04/12 12:40:37;;;;;;;19.20;14.65;;;;;;;;;;5122239;27;20022;-71
2023/04/12 12:43:24;;;;;;;24.50;17.50;;;;;;;;;;5122440;27;20023;-72
2023/04/12 12:46:10;;;;;;;19.45;14.75;;;;;;;;;;5136297;27;20445;-72
2023/04/12 12:48:56;;;;;;;23.48;15.15;;;;;;;;;;5136243;27;20027;-71
2023/04/12 12:51:42;;;;;;;19.88;14.50;;;;;;;;;;5121116;27;20106;-72
2023/04/12 12:54:28;;;;;;;18.52;13.82;;;;;;;;;;5136206;27;20033;-71
2023/04/12 12:57:13;;;;;;;19.73;14.25;;;;;;;;;;5135689;27;20032;-71
2023/04/12 12:59:59;;;;;;;22.45;14.85;;;;;;;;;;5122368;27;20075;-71
2023/04/12 13:02:44;;;;;;;20.17;13.75;;;;;;;;;;5136671;27;20462;-72
2023/04/12 13:05:30;;;;;;;18.90;13.45;;;;;;;;;;5136356;27;20359;-72
2023/04/12 13:08:16;;;;;;;20.33;11.80;;;;;;;;;;5136207;27;20394;-72
2023/04/12 13:11:02;;;;;;;15.10;11.27;;;;;;;;;;5136486;27;20019;-71
2023/04/12 13:13:47;;;;;;;15.73;11.38;;;;;;;;;;5135866;27;20023;-72
2023/04/12 13:16:33;;;;;;;15.90;9.98;;;;;;;;;;5136064;27;20041;-72
2023/04/12 13:19:18;;;;;;;14.35;9.40;;;;;;;;;;5135609;27;20025;-71
2023/04/12 13:22:06;;;;;;;11.70;8.73;;;;;;;;;;5135546;27;20026;-72
2023/04/12 13:24:51;;;;;;;12.30;9.55;;;;;;;;;;5136902;27;20097;-72
2023/04/12 13:27:37;;;;;;;14.88;10.13;;;;;;;;;;5136837;27;20026;-72
2023/04/12 13:30:22;;;;;;;15.07;10.38;;;;;;;;;;5135350;27;20027;-72
2023/04/12 13:33:08;;;;;;;17.20;11.48;;;;;;;;;;5135377;27;20038;-71
2023/04/12 13:35:54;;;;;;;12.57;10.00;;;;;;;;;;5135288;27;20015;-71
2023/04/12 13:38:39;;;;;;;19.73;10.77;;;;;;;;;;5121946;27;20015;-71
2023/04/12 13:41:25;;;;;;;13.93;9.48;;;;;;;;;;5135476;27;20028;-71
2023/04/12 13:44:10;;;;;;;14.52;9.57;;;;;;;;;;5134878;27;20025;-72
2023/04/12 13:46:56;;;;;;;11.25;9.13;;;;;;;;;;5135561;27;20023;-71
2023/04/12 13:49:41;;;;;;;13.00;9.00;;;;;;;;;;5122137;27;20466;-72
2023/04/12 13:52:27;;;;;;;11.48;8.13;;;;;;;;;;5134629;27;20023;-72
2023/04/12 13:55:13;;;;;;;13.98;8.60;;;;;;;;;;5135920;27;20408;-71
2023/04/12 13:57:58;;;;;;;12.60;8.77;;;;;;;;;;5134985;27;20102;-71
2023/04/12 14:00:44;;;;;;;9.68;7.80;;;;;;;;;;5135204;27;20011;-72
2023/04/12 14:03:29;;;;;;;11.48;7.68;;;;;;;;;;5134740;27;20098;-72
2023/04/12 14:06:15;;;;;;;10.10;7.72;;;;;;;;;;5135221;27;20102;-72
2023/04/12 14:09:01;;;;;;;10.27;7.97;;;;;;;;;;5135159;27;20047;-72
2023/04/12 14:11:46;;;;;;;12.27;8.25;;;;;;;;;;5135822;27;20015;-72
2023/04/12 14:14:32;;;;;;;9.32;7.25;;;;;;;;;;5122498;27;20435;-72
2023/04/12 14:17:18;;;;;;;8.93;6.78;;;;;;;;;;5135018;27;20023;-72
2023/04/12 14:20:07;;;;;;;12.77;7.82;;;;;;;;;;5134812;27;20111;-72
2023/04/12 14:22:53;;;;;;;11.90;8.25;;;;;;;;;;5134934;27;20015;-71
2023/04/12 14:25:38;;;;;;;17.35;8.30;;;;;;;;;;5137190;27;20401;-71
2023/04/12 14:28:29;;;;;;;13.77;8.30;;;;;;;;;;5139685;27;20038;-71
2023/04/12 14:31:15;;;;;;;14.48;8.80;;;;;;;;;;5135882;27;20117;-72
2023/04/12 14:34:01;;;;;;;13.35;9.25;;;;;;;;;;5135810;27;20019;-71
2023/04/12 14:36:46;;;;;;;15.45;8.30;;;;;;;;;;5135469;27;20026;-72
2023/04/12 14:39:32;;;;;;;14.77;8.85;;;;;;;;;;5134782;27;20039;-73
2023/04/12 14:42:18;;;;;;;18.33;10.18;;;;;;;;;;5135264;28;20343;-72
2023/04/12 14:45:06;;;;;;;17.83;9.90;;;;;;;;;;5135832;28;20012;-72
2023/04/12 14:47:52;;;;;;;16.60;9.80;;;;;;;;;;5134986;28;20355;-72
2023/04/12 14:50:38;;;;;;;16.58;9.57;;;;;;;;;;5121392;28;20083;-72
2023/04/12 14:53:24;;;;;;;8.98;6.50;;;;;;;;;;5122462;28;20023;-74
2023/04/12 14:56:17;;;;;;;10.60;5.70;;;;;;;;;;5135762;28;20455;-73
2023/04/12 14:59:03;;;;;;;7.80;4.88;;;;;;;;;;5135420;28;20080;-72
2023/04/12 15:01:51;;;;;;;6.03;4.78;;;;;;;;;;5137159;27;20462;-72
2023/04/12 15:04:36;;;;;;;9.43;4.75;;;;;;;;;;5139506;27;20023;-72
2023/04/12 15:07:22;;;;;;;10.68;5.25;;;;;;;;;;5139834;27;20371;-72
2023/04/12 15:10:08;;;;;;;7.63;5.10;;;;;;;;;;5138626;27;20015;-71
2023/04/12 15:12:53;;;;;;;8.68;5.75;;;;;;;;;;5138577;27;20027;-71
2023/04/12 15:15:40;;;;;;;7.32;5.53;;;;;;;;;;5125701;27;20047;-72
2023/04/12 15:18:26;;;;;;;7.28;5.15;;;;;;;;;;5139147;27;20023;-72
2023/04/12 15:21:11;;;;;;;7.60;4.88;;;;;;;;;;5139477;27;20023;-71
2023/04/12 15:23:57;;;;;;;8.50;6.60;;;;;;;;;;5123540;27;20451;-72
2023/04/12 15:26:44;;;;;;;14.05;6.22;;;;;;;;;;5124492;27;20031;-71
2023/04/12 15:29:30;;;;;;;7.35;5.35;;;;;;;;;;5138385;27;20031;-71
2023/04/12 15:32:15;;;;;;;7.28;5.45;;;;;;;;;;5125672;27;20079;-72
2023/04/12 15:35:03;;;;;;;6.93;5.55;;;;;;;;;;5138297;27;20466;-72
2023/04/12 15:37:48;;;;;;;7.90;5.95;;;;;;;;;;5123550;27;20023;-73
2023/04/12 15:40:34;;;;;;;8.52;5.85;;;;;;;;;;5138373;27;20043;-73
2023/04/12 15:43:19;;;;;;;8.15;5.50;;;;;;;;;;5139468;27;20031;-71
2023/04/12 15:46:05;;;;;;;11.23;6.43;;;;;;;;;;5139235;27;20481;-71
2023/04/12 15:48:51;;;;;;;13.02;6.82;;;;;;;;;;5137693;27;20050;-72
2023/04/12 15:51:36;;;;;;;10.77;6.38;;;;;;;;;;5137456;27;20089;-72
2023/04/12 15:54:22;;;;;;;8.13;5.65;;;;;;;;;;5137767;27;20103;-72
2023/04/12 15:57:08;;;;;;;8.82;5.80;;;;;;;;;;5137970;27;20019;-72
2023/04/12 15:59:54;;;;;;;8.48;5.78;;;;;;;;;;5124552;27;20027;-72
2023/04/12 16:02:40;;;;;;;7.97;5.65;;;;;;;;;;5124593;27;20030;-73
2023/04/12 16:05:26;;;;;;;9.15;6.28;;;;;;;;;;5138032;27;20393;-71
2023/04/12 16:08:12;;;;;;;9.32;6.22;;;;;;;;;;5138712;27;20103;-72
2023/04/12 16:10:58;;;;;;;7.38;5.25;;;;;;;;;;5137145;27;20015;-72
2023/04/12 16:13:46;;;;;;;8.82;5.75;;;;;;;;;;5138236;27;20050;-72
2023/04/12 16:16:32;;;;;;;22.10;13.27;;;;;;;;;;5139253;27;20098;-72